createdAt,value
2023-04-20T00:00:25.552Z,100511.25
2023-04-20T00:02:53.215Z,100514.94
2023-04-20T00:05:19.836Z,100511.50
2023-04-20T00:07:46.370Z,100507.09
2023-04-20T00:10:12.833Z,100500.88
2023-04-20T00:12:39.419Z,100500.28
2023-04-20T00:15:06.519Z,100489.72
2023-04-20T00:17:33.070Z,100497.16
2023-04-20T00:19:59.549Z,100500.47
2023-04-20T00:22:26.432Z,100494.19
2023-04-20T00:24:52.897Z,100489.44
2023-04-20T00:27:19.424Z,100495.72
2023-04-20T00:29:45.890Z,100500.81
2023-04-20T00:32:12.378Z,100496.63
2023-04-20T00:34:39.058Z,100502.41
2023-04-20T00:37:06.224Z,100504.69
2023-04-20T00:39:32.905Z,100495.88
2023-04-20T00:42:06.943Z,100500.13
2023-04-20T00:44:33.653Z,100502.81
2023-04-20T00:47:00.850Z,100494.59
2023-04-20T00:49:30.040Z,100502.03
2023-04-20T00:51:58.258Z,100500.31
2023-04-20T00:54:26.206Z,100503.16
2023-04-20T00:56:53.374Z,100497.78
2023-04-20T00:59:21.419Z,100502.97
2023-04-20T01:01:48.055Z,100502.38
2023-04-20T01:04:14.751Z,100499.41
2023-04-20T01:06:41.352Z,100507.06
2023-04-20T01:09:07.906Z,100502.38
2023-04-20T01:11:34.522Z,100504.34
2023-04-20T01:14:01.501Z,100500.97
2023-04-20T01:16:28.184Z,100503.69
2023-04-20T01:18:54.814Z,100501.22
2023-04-20T01:21:24.231Z,100500.63
2023-04-20T01:23:50.830Z,100491.44
2023-04-20T01:26:18.838Z,100492.75
2023-04-20T01:28:45.579Z,100499.34
2023-04-20T01:31:12.631Z,100503.84
2023-04-20T01:33:39.882Z,100494.88
2023-04-20T01:36:07.797Z,100491.38
2023-04-20T01:38:34.810Z,100493.38
2023-04-20T01:41:04.396Z,100484.81
2023-04-20T01:43:31.018Z,100490.84
2023-04-20T01:45:57.575Z,100488.06
2023-04-20T01:48:24.015Z,100491.91
2023-04-20T01:50:51.810Z,100498.34
2023-04-20T01:53:18.503Z,100497.69
2023-04-20T01:55:45.046Z,100496.50
2023-04-20T01:58:11.641Z,100487.09
2023-04-20T02:00:38.129Z,100492.69
2023-04-20T02:03:04.962Z,100494.06
2023-04-20T02:05:31.531Z,100488.22
2023-04-20T02:07:58.093Z,100493.06
2023-04-20T02:10:24.735Z,100499.03
2023-04-20T02:12:51.329Z,100490.97
2023-04-20T02:15:17.832Z,100503.00
2023-04-20T02:17:45.217Z,100497.13
2023-04-20T02:20:12.587Z,100498.00
2023-04-20T02:22:39.179Z,100491.34
2023-04-20T02:25:06.871Z,100501.31
2023-04-20T02:27:33.385Z,100500.00
2023-04-20T02:30:00.190Z,100494.53
2023-04-20T02:32:27.182Z,100504.44
2023-04-20T02:34:53.675Z,100505.09
2023-04-20T02:37:20.168Z,100506.94
2023-04-20T02:39:46.674Z,100505.09
2023-04-20T02:42:13.222Z,100497.97
2023-04-20T02:44:39.710Z,100495.41
2023-04-20T02:47:06.463Z,100494.28
2023-04-20T02:49:32.964Z,100504.81
2023-04-20T02:51:59.456Z,100505.84
2023-04-20T02:54:25.999Z,100501.53
2023-04-20T02:56:52.505Z,100500.38
2023-04-20T02:59:19.245Z,100505.44
2023-04-20T03:01:46.204Z,100497.59
2023-04-20T03:04:13.279Z,100502.38
2023-04-20T03:06:40.573Z,100509.63
2023-04-20T03:09:07.741Z,100512.19
2023-04-20T03:11:34.385Z,100507.91
2023-04-20T03:14:01.001Z,100502.53
2023-04-20T03:16:27.512Z,100511.34
2023-04-20T03:18:54.170Z,100506.41
2023-04-20T03:21:20.694Z,100505.28
2023-04-20T03:23:47.610Z,100504.97
2023-04-20T03:26:14.151Z,100510.56
2023-04-20T03:28:42.050Z,100511.72
2023-04-20T03:31:08.796Z,100503.25
2023-04-20T03:33:35.322Z,100502.38
2023-04-20T03:36:01.925Z,100503.28
2023-04-20T03:38:28.418Z,100497.69
2023-04-20T03:40:54.941Z,100503.81
2023-04-20T03:43:22.110Z,100507.84
2023-04-20T03:45:49.731Z,100515.78
2023-04-20T03:48:16.395Z,100514.06
2023-04-20T03:50:43.284Z,100518.13
2023-04-20T03:53:10.869Z,100512.44
2023-04-20T03:55:37.679Z,100523.88
2023-04-20T03:58:07.120Z,100523.97
2023-04-20T04:00:46.346Z,100520.19
2023-04-20T04:03:17.151Z,100524.69
2023-04-20T04:05:44.807Z,100520.78
2023-04-20T04:08:12.909Z,100524.31
2023-04-20T04:10:39.883Z,100535.34
2023-04-20T04:13:07.606Z,100533.78
2023-04-20T04:15:34.496Z,100534.66
2023-04-20T04:18:01.712Z,100523.28
2023-04-20T04:20:28.504Z,100541.78
2023-04-20T04:22:58.447Z,100539.09
2023-04-20T04:25:25.490Z,100536.31
2023-04-20T04:27:53.219Z,100540.41
2023-04-20T04:30:21.025Z,100540.13
2023-04-20T04:32:49.054Z,100549.13
2023-04-20T04:35:16.024Z,100548.88
2023-04-20T04:37:43.308Z,100545.94
2023-04-20T04:40:11.826Z,100553.25
2023-04-20T04:42:38.665Z,100548.94
2023-04-20T04:45:05.845Z,100549.63
2023-04-20T04:47:36.033Z,100551.88
2023-04-20T04:50:06.232Z,100546.09
2023-04-20T04:52:35.668Z,100562.75
2023-04-20T04:55:03.083Z,100562.34
2023-04-20T04:57:29.709Z,100559.19
2023-04-20T04:59:56.307Z,100563.53
2023-04-20T05:02:23.221Z,100566.22
2023-04-20T05:04:49.996Z,100568.00
2023-04-20T05:07:17.427Z,100567.19
2023-04-20T05:09:44.172Z,100566.28
2023-04-20T05:12:12.302Z,100575.97
2023-04-20T05:14:38.798Z,100576.91
2023-04-20T05:17:05.789Z,100568.78
2023-04-20T05:19:32.503Z,100569.22
2023-04-20T05:21:59.056Z,100580.41
2023-04-20T05:24:25.696Z,100571.16
2023-04-20T05:26:52.196Z,100573.78
2023-04-20T05:29:18.863Z,100572.50
2023-04-20T05:31:45.537Z,100580.59
2023-04-20T05:34:12.249Z,100569.34
2023-04-20T05:36:40.300Z,100577.22
2023-04-20T05:39:06.884Z,100586.50
2023-04-20T05:41:33.512Z,100583.72
2023-04-20T05:44:00.007Z,100593.16
2023-04-20T05:46:26.676Z,100582.34
2023-04-20T05:48:53.450Z,100584.81
2023-04-20T05:51:19.944Z,100584.25
2023-04-20T05:53:46.736Z,100579.50
2023-04-20T05:56:14.718Z,100593.41
2023-04-20T05:58:41.515Z,100586.28
2023-04-20T06:01:08.080Z,100591.41
2023-04-20T06:03:34.785Z,100595.84
2023-04-20T06:06:01.500Z,100597.72
2023-04-20T06:08:27.997Z,100594.56
2023-04-20T06:10:56.190Z,100596.22
2023-04-20T06:13:22.764Z,100600.75
2023-04-20T06:15:49.417Z,100606.66
2023-04-20T06:18:16.310Z,100604.28
2023-04-20T06:20:47.816Z,100598.72
2023-04-20T06:23:14.473Z,100610.25
2023-04-20T06:25:41.284Z,100605.41
2023-04-20T06:28:08.619Z,100608.72
2023-04-20T06:30:35.466Z,100603.28
2023-04-20T06:33:03.146Z,100605.97
2023-04-20T06:35:29.922Z,100602.47
2023-04-20T06:37:57.487Z,100596.56
2023-04-20T06:40:28.162Z,100596.75
2023-04-20T06:42:54.891Z,100589.16
2023-04-20T06:45:21.973Z,100595.59
2023-04-20T06:47:48.918Z,100591.28
2023-04-20T06:50:16.267Z,100597.91
2023-04-20T06:52:43.452Z,100604.28
2023-04-20T06:55:14.100Z,100602.16
2023-04-20T06:57:43.895Z,100595.50
2023-04-20T07:00:12.486Z,100601.72
2023-04-20T07:02:46.847Z,100608.94
2023-04-20T07:05:14.438Z,100609.50
2023-04-20T07:07:41.389Z,100601.94
2023-04-20T07:10:10.457Z,100620.78
2023-04-20T07:12:37.762Z,100608.53
2023-04-20T07:15:05.630Z,100607.78
2023-04-20T07:17:32.582Z,100598.91
2023-04-20T07:20:09.097Z,100607.19
2023-04-20T07:22:37.697Z,100620.50
2023-04-20T07:25:07.131Z,100609.38
2023-04-20T07:27:42.143Z,100619.22
2023-04-20T07:30:11.487Z,100612.78
2023-04-20T07:32:40.231Z,100609.81
2023-04-20T07:35:07.779Z,100608.31
2023-04-20T07:37:35.156Z,100619.91
2023-04-20T07:40:02.332Z,100609.09
2023-04-20T07:42:33.696Z,100619.41
2023-04-20T07:45:00.657Z,100621.97
2023-04-20T07:47:27.776Z,100616.34
2023-04-20T07:49:54.948Z,100611.28
2023-04-20T07:52:22.068Z,100608.97
2023-04-20T07:54:49.801Z,100612.19
2023-04-20T07:57:17.114Z,100608.38
2023-04-20T07:59:46.481Z,100616.50
2023-04-20T08:02:13.599Z,100605.13
2023-04-20T08:04:41.488Z,100608.28
2023-04-20T08:07:08.841Z,100604.41
2023-04-20T08:09:35.781Z,100600.59
2023-04-20T08:12:03.106Z,100605.66
2023-04-20T08:14:30.070Z,100603.03
2023-04-20T08:16:56.941Z,100607.97
2023-04-20T08:19:23.750Z,100607.72
2023-04-20T08:21:51.760Z,100604.28
2023-04-20T08:24:20.912Z,100600.53
2023-04-20T08:26:48.073Z,100604.88
2023-04-20T08:29:15.100Z,100613.41
2023-04-20T08:31:43.129Z,100596.50
2023-04-20T08:34:14.118Z,100601.59
2023-04-20T08:36:41.429Z,100601.59
2023-04-20T08:39:18.503Z,100606.53
2023-04-20T08:41:45.228Z,100601.84
2023-04-20T08:44:12.225Z,100608.47
2023-04-20T08:46:41.528Z,100604.75
2023-04-20T08:49:12.937Z,100595.63
2023-04-20T08:51:41.915Z,100611.47
2023-04-20T08:54:08.842Z,100622.97
2023-04-20T08:56:37.854Z,100625.44
2023-04-20T08:59:05.864Z,100609.78
2023-04-20T09:01:35.924Z,100619.66
2023-04-20T09:04:14.856Z,100614.25
2023-04-20T09:06:53.802Z,100618.69
2023-04-20T09:09:22.723Z,100614.47
2023-04-20T09:12:02.733Z,100611.72
2023-04-20T09:14:30.451Z,100596.72
2023-04-20T09:17:02.277Z,100606.91
2023-04-20T09:19:30.509Z,100606.63
2023-04-20T09:21:59.946Z,100605.03
2023-04-20T09:24:32.836Z,100608.41
2023-04-20T09:27:03.579Z,100619.97
2023-04-20T09:29:30.391Z,100601.84
2023-04-20T09:31:57.086Z,100611.06
2023-04-20T09:34:24.096Z,100610.88
2023-04-20T09:36:52.459Z,100616.91
2023-04-20T09:39:20.927Z,100622.09
2023-04-20T09:41:48.003Z,100615.59
2023-04-20T09:44:16.140Z,100612.00
2023-04-20T09:46:43.972Z,100609.47
2023-04-20T09:49:14.063Z,100610.03
2023-04-20T09:51:45.279Z,100606.94
2023-04-20T09:54:12.952Z,100597.91
2023-04-20T09:56:40.617Z,100614.44
2023-04-20T09:59:07.859Z,100609.47
2023-04-20T10:01:37.994Z,100603.88
2023-04-20T10:04:09.226Z,100611.44
2023-04-20T10:06:37.259Z,100604.63
2023-04-20T10:09:05.826Z,100609.25
2023-04-20T10:11:52.406Z,100607.56
2023-04-20T10:14:26.084Z,100609.72
2023-04-20T10:17:04.947Z,100614.94
2023-04-20T10:19:41.080Z,100602.34
2023-04-20T10:22:10.203Z,100606.16
2023-04-20T10:24:40.359Z,100583.69
2023-04-20T10:27:27.166Z,100590.22
2023-04-20T10:29:53.961Z,100594.66
2023-04-20T10:32:29.738Z,100597.56
2023-04-20T10:35:06.870Z,100594.75
2023-04-20T10:37:33.934Z,100592.84
2023-04-20T10:40:04.261Z,100583.81
2023-04-20T10:42:44.894Z,100587.75
2023-04-20T10:45:12.593Z,100577.28
2023-04-20T10:47:40.844Z,100574.81
2023-04-20T10:50:08.493Z,100583.31
2023-04-20T10:52:37.061Z,100580.84
2023-04-20T10:55:04.876Z,100578.28
2023-04-20T10:57:31.509Z,100566.97
2023-04-20T10:59:58.145Z,100574.31
2023-04-20T11:02:24.932Z,100575.84
2023-04-20T11:04:53.445Z,100575.75
2023-04-20T11:07:21.071Z,100562.31
2023-04-20T11:09:54.996Z,100558.44
2023-04-20T11:12:21.561Z,100566.09
2023-04-20T11:14:52.878Z,100560.03
2023-04-20T11:17:19.791Z,100551.97
2023-04-20T11:19:46.859Z,100557.34
2023-04-20T11:22:22.638Z,100555.72
2023-04-20T11:24:50.173Z,100558.19
2023-04-20T11:27:22.208Z,100567.13
2023-04-20T11:29:57.437Z,100567.53
2023-04-20T11:32:24.778Z,100563.56
2023-04-20T11:35:08.205Z,100556.50
2023-04-20T11:37:48.108Z,100556.97
2023-04-20T11:40:15.255Z,100558.16
2023-04-20T11:42:41.883Z,100559.91
2023-04-20T11:45:08.803Z,100558.53
2023-04-20T11:47:35.479Z,100555.34
2023-04-20T11:52:56.607Z,100556.78
2023-04-20T11:55:23.273Z,100559.66
2023-04-20T11:57:50.303Z,100549.19
2023-04-20T12:00:18.108Z,100563.75
2023-04-20T12:02:44.864Z,100548.22
2023-04-20T12:05:12.441Z,100551.00
2023-04-20T12:07:39.886Z,100545.06
2023-04-20T12:10:08.047Z,100548.41
2023-04-20T12:12:34.491Z,100555.88
2023-04-20T12:15:01.091Z,100534.38
2023-04-20T12:17:28.003Z,100533.81
2023-04-20T12:19:54.710Z,100548.41
2023-04-20T12:22:21.306Z,100534.84
2023-04-20T12:24:47.887Z,100534.84
2023-04-20T12:27:14.479Z,100538.25
2023-04-20T12:29:41.403Z,100544.94
2023-04-20T12:32:08.006Z,100536.91
2023-04-20T12:34:34.539Z,100541.88
2023-04-20T12:37:01.651Z,100538.16
2023-04-20T12:39:28.328Z,100546.56
2023-04-20T12:41:54.839Z,100526.91
2023-04-20T12:44:21.846Z,100516.28
2023-04-20T12:46:48.393Z,100504.25
2023-04-20T12:49:14.943Z,100523.00
2023-04-20T12:51:41.748Z,100516.16
2023-04-20T12:54:08.644Z,100515.97
2023-04-20T12:56:36.147Z,100517.22
2023-04-20T12:59:03.667Z,100506.16
2023-04-20T13:01:30.298Z,100513.00
2023-04-20T13:03:57.269Z,100506.97
2023-04-20T13:06:24.400Z,100509.16
2023-04-20T13:08:51.208Z,100522.16
2023-04-20T13:11:18.316Z,100520.56
2023-04-20T13:13:46.117Z,100508.41
2023-04-20T13:16:12.785Z,100514.97
2023-04-20T13:18:39.323Z,100501.06
2023-04-20T13:21:06.108Z,100508.50
2023-04-20T13:23:32.601Z,100510.59
2023-04-20T13:26:01.519Z,100503.91
2023-04-20T13:28:28.666Z,100498.91
2023-04-20T13:30:57.450Z,100511.69
2023-04-20T13:33:24.223Z,100510.34
2023-04-20T13:35:51.533Z,100504.06
2023-04-20T13:38:18.443Z,100506.59
2023-04-20T13:40:46.457Z,100507.59
2023-04-20T13:43:13.386Z,100504.44
2023-04-20T13:45:40.022Z,100508.63
2023-04-20T13:48:06.738Z,100502.16
2023-04-20T13:50:33.623Z,100505.19
2023-04-20T13:53:03.261Z,100502.66
2023-04-20T13:55:31.285Z,100503.34
2023-04-20T13:57:58.082Z,100498.41
2023-04-20T14:00:25.987Z,100499.16
2023-04-20T14:02:52.899Z,100496.09
2023-04-20T14:05:19.659Z,100504.78
2023-04-20T14:07:46.596Z,100501.00
2023-04-20T14:10:13.230Z,100493.59
2023-04-20T14:12:40.099Z,100512.19
2023-04-20T14:15:07.183Z,100497.97
2023-04-20T14:17:33.876Z,100504.75
2023-04-20T14:20:00.566Z,100491.88
2023-04-20T14:22:34.098Z,100502.88
2023-04-20T14:25:00.717Z,100498.69
2023-04-20T14:27:27.388Z,100500.38
2023-04-20T14:29:55.428Z,100499.63
2023-04-20T14:32:22.013Z,100494.88
2023-04-20T14:34:48.571Z,100494.84
2023-04-20T14:37:15.145Z,100487.81
2023-04-20T14:39:41.806Z,100494.19
2023-04-20T14:42:08.458Z,100489.31
2023-04-20T14:44:35.582Z,100494.84
2023-04-20T14:47:02.982Z,100494.84
2023-04-20T14:49:29.649Z,100495.25
2023-04-20T14:51:56.183Z,100483.44
2023-04-20T14:54:22.849Z,100481.50
2023-04-20T14:56:49.443Z,100493.97
2023-04-20T14:59:16.063Z,100495.69
2023-04-20T15:01:51.629Z,100481.06
2023-04-20T15:04:26.259Z,100491.00
2023-04-20T15:06:53.068Z,100491.84
2023-04-20T15:09:19.543Z,100495.03
2023-04-20T15:11:46.163Z,100497.34
2023-04-20T15:14:12.667Z,100488.91
2023-04-20T15:16:39.511Z,100494.63
2023-04-20T15:19:06.168Z,100482.66
2023-04-20T15:21:32.685Z,100485.41
2023-04-20T15:23:59.213Z,100476.75
2023-04-20T15:26:25.932Z,100490.00
2023-04-20T15:28:52.573Z,100486.41
2023-04-20T15:31:19.163Z,100487.84
2023-04-20T15:33:48.187Z,100493.69
2023-04-20T15:36:17.896Z,100485.81
2023-04-20T15:38:44.469Z,100489.91
2023-04-20T15:41:11.791Z,100482.16
2023-04-20T15:43:39.516Z,100481.59
2023-04-20T15:46:06.482Z,100490.72
2023-04-20T15:48:33.408Z,100492.88
2023-04-20T15:50:59.977Z,100482.72
2023-04-20T15:53:26.857Z,100479.84
2023-04-20T15:55:53.652Z,100489.47
2023-04-20T15:58:20.240Z,100486.81
2023-04-20T16:00:47.003Z,100477.53
2023-04-20T16:03:13.932Z,100476.84
2023-04-20T16:05:40.765Z,100487.72
2023-04-20T16:08:07.382Z,100477.53
2023-04-20T16:10:34.455Z,100484.41
2023-04-20T16:13:00.916Z,100480.25
2023-04-20T16:15:27.592Z,100489.44
2023-04-20T16:17:54.878Z,100476.09
2023-04-20T16:20:21.534Z,100474.97
2023-04-20T16:22:48.080Z,100475.13
2023-04-20T16:25:26.558Z,100484.53
2023-04-20T16:27:53.089Z,100486.09
2023-04-20T16:30:19.682Z,100488.84
2023-04-20T16:32:46.349Z,100486.63
2023-04-20T16:35:12.882Z,100487.41
2023-04-20T16:37:39.441Z,100498.72
2023-04-20T16:40:06.847Z,100499.09
2023-04-20T16:42:34.230Z,100491.75
2023-04-20T16:45:01.093Z,100504.06
2023-04-20T16:47:27.754Z,100504.16
2023-04-20T16:49:54.306Z,100500.72
2023-04-20T16:52:20.897Z,100511.13
2023-04-20T16:54:47.582Z,100513.91
2023-04-20T16:57:14.163Z,100520.91
2023-04-20T16:59:40.755Z,100525.94
2023-04-20T17:02:07.975Z,100519.53
2023-04-20T17:04:35.815Z,100513.22
2023-04-20T17:07:02.525Z,100526.06
2023-04-20T17:09:28.998Z,100525.69
2023-04-20T17:11:56.575Z,100527.97
2023-04-20T17:14:23.173Z,100521.53
2023-04-20T17:16:51.134Z,100524.81
2023-04-20T17:19:17.847Z,100529.47
2023-04-20T17:21:45.586Z,100538.00
2023-04-20T17:24:12.508Z,100529.78
2023-04-20T17:26:39.219Z,100531.38
2023-04-20T17:29:06.062Z,100537.34
2023-04-20T17:31:33.539Z,100533.78
2023-04-20T17:34:00.500Z,100538.47
2023-04-20T17:36:28.260Z,100540.78
2023-04-20T17:38:55.204Z,100542.22
2023-04-20T17:41:21.833Z,100539.47
2023-04-20T17:43:51.059Z,100551.31
2023-04-20T17:46:17.978Z,100550.69
2023-04-20T17:48:44.533Z,100547.31
2023-04-20T17:51:14.926Z,100543.78
2023-04-20T17:53:41.452Z,100549.75
2023-04-20T17:56:08.137Z,100566.13
2023-04-20T17:58:34.719Z,100548.59
2023-04-20T18:01:01.714Z,100552.72
2023-04-20T18:03:28.897Z,100558.97
2023-04-20T18:05:55.614Z,100559.38
2023-04-20T18:08:23.432Z,100564.19
2023-04-20T18:10:50.164Z,100557.91
2023-04-20T18:13:16.945Z,100558.25
2023-04-20T18:15:43.767Z,100559.47
2023-04-20T18:18:11.952Z,100555.38
2023-04-20T18:20:38.503Z,100554.69
2023-04-20T18:23:05.194Z,100563.88
2023-04-20T18:25:31.753Z,100565.22
2023-04-20T18:27:58.215Z,100569.16
2023-04-20T18:30:24.910Z,100562.00
2023-04-20T18:32:51.479Z,100564.88
2023-04-20T18:35:19.347Z,100566.75
2023-04-20T18:37:46.047Z,100565.06
2023-04-20T18:40:15.425Z,100565.22
2023-04-20T18:42:42.722Z,100565.22
2023-04-20T18:45:10.283Z,100564.50
2023-04-20T18:47:36.906Z,100569.56
2023-04-20T18:50:03.687Z,100574.63
2023-04-20T18:52:34.076Z,100572.13
2023-04-20T18:55:01.425Z,100570.41
2023-04-20T18:57:28.763Z,100585.34
2023-04-20T18:59:56.502Z,100583.38
2023-04-20T19:02:23.301Z,100586.28
2023-04-20T19:04:50.974Z,100583.69
2023-04-20T19:07:18.225Z,100581.13
2023-04-20T19:09:45.121Z,100581.72
2023-04-20T19:12:11.974Z,100581.28
2023-04-20T19:14:38.769Z,100589.56
2023-04-20T19:17:06.841Z,100588.75
2023-04-20T19:19:33.529Z,100589.03
2023-04-20T19:22:00.631Z,100599.31
2023-04-20T19:24:27.708Z,100599.19
2023-04-20T19:26:54.627Z,100594.25
2023-04-20T19:29:21.444Z,100599.66
2023-04-20T19:31:48.165Z,100595.09
2023-04-20T19:34:15.361Z,100590.88
2023-04-20T19:36:42.125Z,100594.97
2023-04-20T19:39:10.350Z,100591.53
2023-04-20T19:41:37.981Z,100594.13
2023-04-20T19:44:06.493Z,100604.00
2023-04-20T19:46:33.888Z,100598.91
2023-04-20T19:49:01.494Z,100594.31
2023-04-20T19:51:28.076Z,100596.50
2023-04-20T19:53:56.529Z,100596.97
2023-04-20T19:56:23.137Z,100603.41
2023-04-20T19:58:49.683Z,100600.03
2023-04-20T20:01:16.341Z,100602.16
2023-04-20T20:03:43.083Z,100596.03
2023-04-20T20:06:10.698Z,100603.28
2023-04-20T20:08:37.675Z,100601.28
2023-04-20T20:11:04.512Z,100605.38
2023-04-20T20:13:31.258Z,100605.84
2023-04-20T20:15:58.871Z,100609.22
2023-04-20T20:18:25.923Z,100603.66
2023-04-20T20:20:52.501Z,100603.66
2023-04-20T20:23:18.949Z,100600.94
2023-04-20T20:25:45.466Z,100607.56
2023-04-20T20:28:11.944Z,100597.97
2023-04-20T20:30:38.564Z,100605.47
2023-04-20T20:33:05.091Z,100611.56
2023-04-20T20:35:33.545Z,100606.13
2023-04-20T20:38:00.255Z,100606.38
2023-04-20T20:40:26.758Z,100603.97
2023-04-20T20:42:53.436Z,100602.81
2023-04-20T20:45:20.173Z,100604.28
2023-04-20T20:47:46.797Z,100600.31
2023-04-20T20:50:14.458Z,100601.31
2023-04-20T20:52:41.244Z,100600.78
2023-04-20T20:55:08.882Z,100608.41
2023-04-20T20:57:36.026Z,100602.75
2023-04-20T21:00:07.523Z,100605.47
2023-04-20T21:02:34.178Z,100607.66
2023-04-20T21:05:00.783Z,100611.38
2023-04-20T21:07:27.257Z,100611.22
2023-04-20T21:09:53.720Z,100619.28
2023-04-20T21:12:20.380Z,100613.28
2023-04-20T21:14:46.897Z,100607.78
2023-04-20T21:17:13.390Z,100605.78
2023-04-20T21:19:39.890Z,100602.44
2023-04-20T21:22:06.498Z,100608.41
2023-04-20T21:24:33.523Z,100609.13
2023-04-20T21:27:00.031Z,100613.22
2023-04-20T21:29:26.552Z,100617.38
2023-04-20T21:31:53.204Z,100608.78
2023-04-20T21:34:19.734Z,100603.16
2023-04-20T21:36:46.311Z,100603.91
2023-04-20T21:39:12.949Z,100613.13
2023-04-20T21:41:39.464Z,100603.28
2023-04-20T21:44:06.029Z,100600.81
2023-04-20T21:46:33.168Z,100598.00
2023-04-20T21:48:59.843Z,100605.16
2023-04-20T21:51:27.692Z,100604.91
2023-04-20T21:53:54.216Z,100602.47
2023-04-20T21:56:20.699Z,100592.81
2023-04-20T21:58:47.189Z,100604.06
2023-04-20T22:01:13.677Z,100601.25
2023-04-20T22:03:40.401Z,100603.81
2023-04-20T22:06:07.182Z,100604.69
2023-04-20T22:08:33.840Z,100604.88
2023-04-20T22:11:00.440Z,100604.31
2023-04-20T22:13:26.924Z,100601.91
2023-04-20T22:15:53.753Z,100605.81
2023-04-20T22:18:20.377Z,100609.22
2023-04-20T22:20:46.988Z,100612.56
2023-04-20T22:23:13.557Z,100615.81
2023-04-20T22:25:40.804Z,100615.59
2023-04-20T22:28:07.574Z,100614.47
2023-04-20T22:30:34.537Z,100620.63
2023-04-20T22:33:01.461Z,100616.53
2023-04-20T22:35:28.294Z,100618.22
2023-04-20T22:37:55.027Z,100619.38
2023-04-20T22:40:21.707Z,100621.09
2023-04-20T22:42:48.271Z,100609.25
2023-04-20T22:45:14.960Z,100614.81
2023-04-20T22:47:41.605Z,100616.97
2023-04-20T22:50:10.062Z,100613.00
2023-04-20T22:52:38.597Z,100618.44
2023-04-20T22:55:06.629Z,100615.00
2023-04-20T22:57:33.102Z,100609.00
2023-04-20T22:59:59.675Z,100608.59
2023-04-20T23:02:26.978Z,100615.00
2023-04-20T23:04:53.607Z,100608.16
2023-04-20T23:07:21.201Z,100609.88
2023-04-20T23:09:48.198Z,100608.44
2023-04-20T23:12:14.677Z,100612.84
2023-04-20T23:14:43.861Z,100617.25
2023-04-20T23:17:11.322Z,100622.81
2023-04-20T23:19:38.520Z,100619.22
2023-04-20T23:22:08.696Z,100614.81
2023-04-20T23:24:35.645Z,100615.69
2023-04-20T23:27:02.204Z,100614.09
2023-04-20T23:29:28.736Z,100607.97
2023-04-20T23:31:55.315Z,100612.09
2023-04-20T23:34:21.881Z,100614.50
2023-04-20T23:36:48.511Z,100619.22
2023-04-20T23:39:15.964Z,100612.94
2023-04-20T23:41:42.506Z,100602.41
2023-04-20T23:44:09.296Z,100600.69
2023-04-20T23:46:36.140Z,100606.22
2023-04-20T23:49:03.296Z,100607.78
2023-04-20T23:51:29.816Z,100613.31
2023-04-20T23:53:56.287Z,100608.47
2023-04-20T23:56:23.209Z,100613.31
2023-04-20T23:58:49.750Z,100606.75
